sensor_id;sensor_type;location;lat;lon;timestamp;pressure;altitude;pressure_sealevel;temperature;humidity
74327;BME280;62745;51.060;13.786;2023-12-20T00:00:38;99777.63;;;5.70;100.00
74327;BME280;62745;51.060;13.786;2023-12-20T00:03:04;99795.16;;;5.79;100.00
74327;BME280;62745;51.060;13.786;2023-12-20T00:05:29;99794.84;;;5.74;100.00
74327;BME280;62745;51.060;13.786;2023-12-20T00:07:57;99806.47;;;5.73;100.00
74327;BME280;62745;51.060;13.786;2023-12-20T00:10:22;99785.72;;;5.77;100.00
74327;BME280;62745;51.060;13.786;2023-12-20T00:12:47;99788.09;;;5.71;100.00
74327;BME280;62745;51.060;13.786;2023-12-20T00:15:13;99790.75;;;5.63;100.00
74327;BME280;62745;51.060;13.786;2023-12-20T00:17:38;99787.28;;;5.63;100.00
74327;BME280;62745;51.060;13.786;2023-12-20T00:20:03;99783.16;;;5.60;100.00
74327;BME280;62745;51.060;13.786;2023-12-20T00:22:29;99773.72;;;5.58;100.00
74327;BME280;62745;51.060;13.786;2023-12-20T00:24:54;99775.91;;;5.46;100.00
74327;BME280;62745;51.060;13.786;2023-12-20T00:27:19;99779.38;;;5.55;100.00
74327;BME280;62745;51.060;13.786;2023-12-20T00:29:44;99778.22;;;5.49;100.00
74327;BME280;62745;51.060;13.786;2023-12-20T00:32:13;99772.59;;;5.44;100.00
74327;BME280;62745;51.060;13.786;2023-12-20T00:34:38;99773.25;;;5.46;100.00
74327;BME280;62745;51.060;13.786;2023-12-20T00:37:03;99774.28;;;5.37;100.00
74327;BME280;62745;51.060;13.786;2023-12-20T00:39:29;99782.06;;;5.38;100.00
74327;BME280;62745;51.060;13.786;2023-12-20T00:41:54;99783.38;;;5.34;100.00
74327;BME280;62745;51.060;13.786;2023-12-20T00:44:19;99784.03;;;5.36;100.00
74327;BME280;62745;51.060;13.786;2023-12-20T00:46:44;99783.06;;;5.29;100.00
74327;BME280;62745;51.060;13.786;2023-12-20T00:49:09;99774.47;;;5.27;100.00
74327;BME280;62745;51.060;13.786;2023-12-20T00:51:35;99774.34;;;5.21;100.00
74327;BME280;62745;51.060;13.786;2023-12-20T00:54:00;99760.09;;;5.22;100.00
74327;BME280;62745;51.060;13.786;2023-12-20T00:56:25;99751.81;;;5.17;100.00
74327;BME280;62745;51.060;13.786;2023-12-20T00:58:50;99756.47;;;5.14;100.00
74327;BME280;62745;51.060;13.786;2023-12-20T01:01:16;99760.94;;;5.14;100.00
74327;BME280;62745;51.060;13.786;2023-12-20T01:03:41;99761.75;;;5.14;100.00
74327;BME280;62745;51.060;13.786;2023-12-20T01:06:06;99753.34;;;5.11;100.00
74327;BME280;62745;51.060;13.786;2023-12-20T01:08:32;99745.69;;;5.16;100.00
74327;BME280;62745;51.060;13.786;2023-12-20T01:10:57;99744.91;;;5.07;100.00
74327;BME280;62745;51.060;13.786;2023-12-20T01:13:22;99746.22;;;5.03;100.00
74327;BME280;62745;51.060;13.786;2023-12-20T01:15:47;99730.84;;;4.99;100.00
74327;BME280;62745;51.060;13.786;2023-12-20T01:18:13;99731.03;;;5.05;100.00
74327;BME280;62745;51.060;13.786;2023-12-20T01:20:38;99735.31;;;5.06;100.00
74327;BME280;62745;51.060;13.786;2023-12-20T01:23:04;99730.50;;;5.02;100.00
74327;BME280;62745;51.060;13.786;2023-12-20T01:25:29;99723.41;;;5.02;100.00
74327;BME280;62745;51.060;13.786;2023-12-20T01:27:54;99716.63;;;5.00;100.00
74327;BME280;62745;51.060;13.786;2023-12-20T01:30:19;99720.13;;;4.92;100.00
74327;BME280;62745;51.060;13.786;2023-12-20T01:32:45;99720.44;;;4.97;100.00
74327;BME280;62745;51.060;13.786;2023-12-20T01:35:10;99722.44;;;4.95;100.00
74327;BME280;62745;51.060;13.786;2023-12-20T01:37:37;99718.47;;;4.91;100.00
74327;BME280;62745;51.060;13.786;2023-12-20T01:40:03;99723.09;;;4.97;100.00
74327;BME280;62745;51.060;13.786;2023-12-20T01:42:28;99725.72;;;4.97;100.00
74327;BME280;62745;51.060;13.786;2023-12-20T01:44:54;99715.81;;;4.99;100.00
74327;BME280;62745;51.060;13.786;2023-12-20T01:47:20;99709.53;;;4.92;100.00
74327;BME280;62745;51.060;13.786;2023-12-20T01:49:45;99718.13;;;4.94;100.00
74327;BME280;62745;51.060;13.786;2023-12-20T01:52:11;99709.69;;;4.99;100.00
74327;BME280;62745;51.060;13.786;2023-12-20T01:54:37;99722.59;;;4.94;100.00
74327;BME280;62745;51.060;13.786;2023-12-20T01:57:04;99712.19;;;4.92;100.00
74327;BME280;62745;51.060;13.786;2023-12-20T01:59:30;99720.13;;;4.92;100.00
74327;BME280;62745;51.060;13.786;2023-12-20T02:01:55;99698.00;;;4.77;100.00
74327;BME280;62745;51.060;13.786;2023-12-20T02:04:21;99714.00;;;4.83;100.00
74327;BME280;62745;51.060;13.786;2023-12-20T02:06:46;99716.31;;;4.87;100.00
74327;BME280;62745;51.060;13.786;2023-12-20T02:09:12;99709.06;;;4.89;100.00
74327;BME280;62745;51.060;13.786;2023-12-20T02:11:37;99706.59;;;4.87;100.00
74327;BME280;62745;51.060;13.786;2023-12-20T02:14:03;99694.66;;;4.83;100.00
74327;BME280;62745;51.060;13.786;2023-12-20T02:16:28;99702.59;;;4.83;100.00
74327;BME280;62745;51.060;13.786;2023-12-20T02:18:53;99707.91;;;4.83;100.00
74327;BME280;62745;51.060;13.786;2023-12-20T02:21:25;99693.19;;;4.80;100.00
74327;BME280;62745;51.060;13.786;2023-12-20T02:23:50;99697.66;;;4.80;100.00
74327;BME280;62745;51.060;13.786;2023-12-20T02:26:16;99700.78;;;4.83;100.00
74327;BME280;62745;51.060;13.786;2023-12-20T02:28:41;99696.97;;;4.86;100.00
74327;BME280;62745;51.060;13.786;2023-12-20T02:31:07;99687.88;;;4.89;100.00
74327;BME280;62745;51.060;13.786;2023-12-20T02:33:32;99675.81;;;4.78;100.00
74327;BME280;62745;51.060;13.786;2023-12-20T02:35:57;99693.50;;;4.86;100.00
74327;BME280;62745;51.060;13.786;2023-12-20T02:38:22;99691.69;;;4.86;100.00
74327;BME280;62745;51.060;13.786;2023-12-20T02:40:48;99689.38;;;4.83;100.00
74327;BME280;62745;51.060;13.786;2023-12-20T02:43:13;99689.38;;;4.83;100.00
74327;BME280;62745;51.060;13.786;2023-12-20T02:45:39;99683.91;;;4.84;100.00
74327;BME280;62745;51.060;13.786;2023-12-20T02:48:05;99680.13;;;4.87;100.00
74327;BME280;62745;51.060;13.786;2023-12-20T02:50:30;99678.31;;;4.88;100.00
74327;BME280;62745;51.060;13.786;2023-12-20T02:52:55;99685.06;;;4.82;100.00
74327;BME280;62745;51.060;13.786;2023-12-20T02:55:20;99679.94;;;4.80;100.00
74327;BME280;62745;51.060;13.786;2023-12-20T02:57:46;99681.94;;;4.78;100.00
74327;BME280;62745;51.060;13.786;2023-12-20T03:00:11;99689.38;;;4.83;100.00
74327;BME280;62745;51.060;13.786;2023-12-20T03:02:37;99668.88;;;4.77;100.00
74327;BME280;62745;51.060;13.786;2023-12-20T03:05:02;99681.13;;;4.78;100.00
74327;BME280;62745;51.060;13.786;2023-12-20T03:07:28;99679.31;;;4.78;100.00
74327;BME280;62745;51.060;13.786;2023-12-20T03:09:53;99677.16;;;4.74;100.00
74327;BME280;62745;51.060;13.786;2023-12-20T03:12:18;99669.41;;;4.72;100.00
74327;BME280;62745;51.060;13.786;2023-12-20T03:14:44;99669.56;;;4.71;100.00
74327;BME280;62745;51.060;13.786;2023-12-20T03:17:09;99674.53;;;4.74;100.00
74327;BME280;62745;51.060;13.786;2023-12-20T03:19:35;99676.53;;;4.72;100.00
74327;BME280;62745;51.060;13.786;2023-12-20T03:22:00;99670.41;;;4.71;100.00
74327;BME280;62745;51.060;13.786;2023-12-20T03:24:26;99677.16;;;4.66;100.00
74327;BME280;62745;51.060;13.786;2023-12-20T03:26:51;99664.75;;;4.66;100.00
74327;BME280;62745;51.060;13.786;2023-12-20T03:29:16;99654.53;;;4.63;100.00
74327;BME280;62745;51.060;13.786;2023-12-20T03:31:42;99657.34;;;4.62;100.00
74327;BME280;62745;51.060;13.786;2023-12-20T03:34:07;99652.06;;;4.62;100.00
74327;BME280;62745;51.060;13.786;2023-12-20T03:36:32;99649.91;;;4.57;100.00
74327;BME280;62745;51.060;13.786;2023-12-20T03:38:57;99641.81;;;4.59;100.00
74327;BME280;62745;51.060;13.786;2023-12-20T03:41:23;99645.94;;;4.61;100.00
74327;BME280;62745;51.060;13.786;2023-12-20T03:43:48;99651.88;;;4.63;100.00
74327;BME280;62745;51.060;13.786;2023-12-20T03:46:13;99642.97;;;4.56;100.00
74327;BME280;62745;51.060;13.786;2023-12-20T03:48:38;99650.41;;;4.61;100.00
74327;BME280;62745;51.060;13.786;2023-12-20T03:51:04;99647.44;;;4.56;100.00
74327;BME280;62745;51.060;13.786;2023-12-20T03:53:29;99647.63;;;4.54;100.00
74327;BME280;62745;51.060;13.786;2023-12-20T03:55:54;99649.75;;;4.59;100.00
74327;BME280;62745;51.060;13.786;2023-12-20T03:58:19;99649.25;;;4.63;100.00
74327;BME280;62745;51.060;13.786;2023-12-20T04:00:45;99654.53;;;4.63;100.00
74327;BME280;62745;51.060;13.786;2023-12-20T04:03:10;99656.19;;;4.64;100.00
74327;BME280;62745;51.060;13.786;2023-12-20T04:05:38;99654.88;;;4.60;100.00
74327;BME280;62745;51.060;13.786;2023-12-20T04:08:03;99644.16;;;4.53;100.00
74327;BME280;62745;51.060;13.786;2023-12-20T04:10:29;99649.88;;;4.65;100.00
74327;BME280;62745;51.060;13.786;2023-12-20T04:12:54;99641.16;;;4.57;100.00
74327;BME280;62745;51.060;13.786;2023-12-20T04:15:20;99646.72;;;4.70;100.00
74327;BME280;62745;51.060;13.786;2023-12-20T04:17:45;99648.72;;;4.68;100.00
74327;BME280;62745;51.060;13.786;2023-12-20T04:20:10;99644.44;;;4.67;100.00
74327;BME280;62745;51.060;13.786;2023-12-20T04:22:36;99651.88;;;4.71;100.00
74327;BME280;62745;51.060;13.786;2023-12-20T04:25:01;99655.19;;;4.73;100.00
74327;BME280;62745;51.060;13.786;2023-12-20T04:27:27;99659.97;;;4.78;100.00
74327;BME280;62745;51.060;13.786;2023-12-20T04:29:52;99642.78;;;4.74;100.00
74327;BME280;62745;51.060;13.786;2023-12-20T04:32:17;99650.38;;;4.69;100.00
74327;BME280;62745;51.060;13.786;2023-12-20T04:34:43;99658.81;;;4.72;100.00
74327;BME280;62745;51.060;13.786;2023-12-20T04:37:08;99656.81;;;4.74;100.00
74327;BME280;62745;51.060;13.786;2023-12-20T04:39:33;99647.06;;;4.67;100.00
74327;BME280;62745;51.060;13.786;2023-12-20T04:41:58;99635.00;;;4.64;100.00
74327;BME280;62745;51.060;13.786;2023-12-20T04:44:24;99651.19;;;4.77;100.00
74327;BME280;62745;51.060;13.786;2023-12-20T04:46:49;99648.19;;;4.89;100.00
74327;BME280;62745;51.060;13.786;2023-12-20T04:49:14;99650.03;;;4.80;100.00
74327;BME280;62745;51.060;13.786;2023-12-20T04:51:39;99655.75;;;5.00;100.00
74327;BME280;62745;51.060;13.786;2023-12-20T04:54:05;99657.28;;;4.86;100.00
74327;BME280;62745;51.060;13.786;2023-12-20T04:56:30;99661.59;;;4.87;100.00
74327;BME280;62745;51.060;13.786;2023-12-20T04:58:55;99664.38;;;4.86;100.00
74327;BME280;62745;51.060;13.786;2023-12-20T05:01:20;99667.06;;;4.77;100.00
74327;BME280;62745;51.060;13.786;2023-12-20T05:03:46;99656.00;;;4.74;100.00
74327;BME280;62745;51.060;13.786;2023-12-20T05:06:11;99658.81;;;4.72;100.00
74327;BME280;62745;51.060;13.786;2023-12-20T05:08:37;99660.81;;;4.70;100.00
74327;BME280;62745;51.060;13.786;2023-12-20T05:11:02;99658.31;;;4.69;100.00
74327;BME280;62745;51.060;13.786;2023-12-20T05:13:28;99651.88;;;4.63;100.00
74327;BME280;62745;51.060;13.786;2023-12-20T05:15:53;99647.72;;;4.69;100.00
74327;BME280;62745;51.060;13.786;2023-12-20T05:18:18;99654.34;;;4.73;100.00
74327;BME280;62745;51.060;13.786;2023-12-20T05:20:44;99655.34;;;4.72;100.00
74327;BME280;62745;51.060;13.786;2023-12-20T05:23:09;99655.84;;;4.75;100.00
74327;BME280;62745;51.060;13.786;2023-12-20T05:25:34;99663.13;;;4.73;100.00
74327;BME280;62745;51.060;13.786;2023-12-20T05:28:00;99669.22;;;4.74;100.00
74327;BME280;62745;51.060;13.786;2023-12-20T05:30:25;99674.50;;;4.82;100.00
74327;BME280;62745;51.060;13.786;2023-12-20T05:32:50;99673.19;;;4.78;100.00
74327;BME280;62745;51.060;13.786;2023-12-20T05:35:16;99667.88;;;4.78;100.00
74327;BME280;62745;51.060;13.786;2023-12-20T05:37:42;99671.66;;;4.83;100.00
74327;BME280;62745;51.060;13.786;2023-12-20T05:40:07;99668.88;;;4.77;100.00
74327;BME280;62745;51.060;13.786;2023-12-20T05:42:36;99667.38;;;4.91;100.00
74327;BME280;62745;51.060;13.786;2023-12-20T05:45:02;99676.31;;;4.90;100.00
74327;BME280;62745;51.060;13.786;2023-12-20T05:47:28;99673.84;;;4.88;100.00
74327;BME280;62745;51.060;13.786;2023-12-20T05:49:53;99683.25;;;4.82;100.00
74327;BME280;62745;51.060;13.786;2023-12-20T05:52:18;99672.19;;;4.79;100.00
74327;BME280;62745;51.060;13.786;2023-12-20T05:54:43;99684.25;;;4.90;100.00
74327;BME280;62745;51.060;13.786;2023-12-20T05:57:09;99686.50;;;5.01;100.00
74327;BME280;62745;51.060;13.786;2023-12-20T05:59:34;99687.16;;;5.03;100.00
74327;BME280;62745;51.060;13.786;2023-12-20T06:01:59;99694.13;;;5.04;100.00
74327;BME280;62745;51.060;13.786;2023-12-20T06:04:24;99693.63;;;5.08;100.00
74327;BME280;62745;51.060;13.786;2023-12-20T06:06:50;99696.94;;;5.02;100.00
74327;BME280;62745;51.060;13.786;2023-12-20T06:09:15;99702.22;;;5.02;100.00
74327;BME280;62745;51.060;13.786;2023-12-20T06:11:40;99677.91;;;4.99;100.00
74327;BME280;62745;51.060;13.786;2023-12-20T06:14:06;99701.03;;;5.13;100.00
74327;BME280;62745;51.060;13.786;2023-12-20T06:16:31;99694.22;;;5.19;100.00
74327;BME280;62745;51.060;13.786;2023-12-20T06:18:56;99703.81;;;5.20;100.00
74327;BME280;62745;51.060;13.786;2023-12-20T06:21:22;99698.34;;;5.29;100.00
74327;BME280;62745;51.060;13.786;2023-12-20T06:23:47;99676.88;;;5.16;100.00
74327;BME280;62745;51.060;13.786;2023-12-20T06:26:12;99693.69;;;5.31;100.00
74327;BME280;62745;51.060;13.786;2023-12-20T06:28:37;99697.88;;;5.18;100.00
74327;BME280;62745;51.060;13.786;2023-12-20T06:31:03;99679.22;;;5.11;100.00
74327;BME280;62745;51.060;13.786;2023-12-20T06:33:28;99700.50;;;5.26;100.00
74327;BME280;62745;51.060;13.786;2023-12-20T06:35:56;99706.94;;;5.31;100.00
74327;BME280;62745;51.060;13.786;2023-12-20T06:38:21;99699.47;;;5.35;100.00
74327;BME280;62745;51.060;13.786;2023-12-20T06:40:46;99711.53;;;5.37;100.00
74327;BME280;62745;51.060;13.786;2023-12-20T06:43:12;99726.13;;;5.33;100.00
74327;BME280;62745;51.060;13.786;2023-12-20T06:45:38;99723.81;;;5.30;100.00
74327;BME280;62745;51.060;13.786;2023-12-20T06:48:04;99714.56;;;5.26;100.00
74327;BME280;62745;51.060;13.786;2023-12-20T06:50:29;99716.94;;;5.13;100.00
74327;BME280;62745;51.060;13.786;2023-12-20T06:52:54;99746.88;;;5.13;100.00
74327;BME280;62745;51.060;13.786;2023-12-20T06:55:19;99737.31;;;5.04;100.00
74327;BME280;62745;51.060;13.786;2023-12-20T06:57:45;99741.63;;;5.05;100.00
74327;BME280;62745;51.060;13.786;2023-12-20T07:00:11;99750.69;;;5.11;100.00
74327;BME280;62745;51.060;13.786;2023-12-20T07:02:36;99742.75;;;5.11;100.00
74327;BME280;62745;51.060;13.786;2023-12-20T07:05:02;99746.88;;;5.13;100.00
74327;BME280;62745;51.060;13.786;2023-12-20T07:07:27;99725.06;;;4.95;100.00
74327;BME280;62745;51.060;13.786;2023-12-20T07:09:52;99750.22;;;5.07;100.00
74327;BME280;62745;51.060;13.786;2023-12-20T07:12:18;99743.22;;;5.14;100.00
74327;BME280;62745;51.060;13.786;2023-12-20T07:14:46;99742.88;;;5.18;100.00
74327;BME280;62745;51.060;13.786;2023-12-20T07:17:12;99735.97;;;5.08;100.00
74327;BME280;62745;51.060;13.786;2023-12-20T07:19:39;99745.53;;;5.18;100.00
74327;BME280;62745;51.060;13.786;2023-12-20T07:22:06;99753.16;;;5.21;100.00
74327;BME280;62745;51.060;13.786;2023-12-20T07:24:31;99750.81;;;5.26;100.00
74327;BME280;62745;51.060;13.786;2023-12-20T07:26:56;99740.22;;;5.18;100.00
74327;BME280;62745;51.060;13.786;2023-12-20T07:29:21;99766.03;;;5.32;100.00
74327;BME280;62745;51.060;13.786;2023-12-20T07:31:47;99757.25;;;5.31;100.00
74327;BME280;62745;51.060;13.786;2023-12-20T07:34:12;99759.41;;;5.28;100.00
74327;BME280;62745;51.060;13.786;2023-12-20T07:36:37;99753.47;;;5.26;100.00
74327;BME280;62745;51.060;13.786;2023-12-20T07:39:02;99752.47;;;5.27;100.00
74327;BME280;62745;51.060;13.786;2023-12-20T07:41:28;99743.34;;;5.29;100.00
74327;BME280;62745;51.060;13.786;2023-12-20T07:43:53;99753.59;;;5.32;100.00
74327;BME280;62745;51.060;13.786;2023-12-20T07:46:20;99730.81;;;5.15;100.00
74327;BME280;62745;51.060;13.786;2023-12-20T07:48:47;99756.06;;;5.34;100.00
74327;BME280;62745;51.060;13.786;2023-12-20T07:51:13;99744.34;;;5.28;100.00
74327;BME280;62745;51.060;13.786;2023-12-20T07:53:38;99752.94;;;5.38;100.00
74327;BME280;62745;51.060;13.786;2023-12-20T07:56:13;99739.53;;;5.40;100.00
74327;BME280;62745;51.060;13.786;2023-12-20T07:58:39;99727.09;;;5.40;100.00
74327;BME280;62745;51.060;13.786;2023-12-20T08:01:04;99740.00;;;5.35;100.00
74327;BME280;62745;51.060;13.786;2023-12-20T08:03:29;99734.59;;;5.29;100.00
74327;BME280;62745;51.060;13.786;2023-12-20T08:05:55;99740.72;;;5.29;100.00
74327;BME280;62745;51.060;13.786;2023-12-20T08:08:21;99738.56;;;5.25;100.00
74327;BME280;62745;51.060;13.786;2023-12-20T08:10:46;99745.81;;;5.39;100.00
74327;BME280;62745;51.060;13.786;2023-12-20T08:13:12;99755.25;;;5.41;100.00
74327;BME280;62745;51.060;13.786;2023-12-20T08:15:37;99751.91;;;5.48;100.00
74327;BME280;62745;51.060;13.786;2023-12-20T08:18:02;99759.50;;;5.51;100.00
74327;BME280;62745;51.060;13.786;2023-12-20T08:20:28;99761.78;;;5.62;100.00
74327;BME280;62745;51.060;13.786;2023-12-20T08:22:53;99748.16;;;5.73;100.00
74327;BME280;62745;51.060;13.786;2023-12-20T08:25:19;99763.34;;;5.79;100.00
74327;BME280;62745;51.060;13.786;2023-12-20T08:27:44;99771.47;;;5.78;100.00
74327;BME280;62745;51.060;13.786;2023-12-20T08:30:10;99758.41;;;5.76;100.00
74327;BME280;62745;51.060;13.786;2023-12-20T08:32:35;99762.66;;;5.85;100.00
74327;BME280;62745;51.060;13.786;2023-12-20T08:35:00;99766.78;;;5.96;100.00
74327;BME280;62745;51.060;13.786;2023-12-20T08:37:26;99757.66;;;5.98;100.00
74327;BME280;62745;51.060;13.786;2023-12-20T08:39:51;99769.72;;;6.01;100.00
74327;BME280;62745;51.060;13.786;2023-12-20T08:42:16;99758.09;;;6.10;100.00
74327;BME280;62745;51.060;13.786;2023-12-20T08:44:41;99752.78;;;6.10;100.00
74327;BME280;62745;51.060;13.786;2023-12-20T08:47:07;99768.44;;;6.20;100.00
74327;BME280;62745;51.060;13.786;2023-12-20T08:49:32;99767.50;;;6.36;100.00
74327;BME280;62745;51.060;13.786;2023-12-20T08:51:58;99768.13;;;6.46;100.00
74327;BME280;62745;51.060;13.786;2023-12-20T08:54:23;99766.69;;;6.58;100.00
74327;BME280;62745;51.060;13.786;2023-12-20T08:56:49;99769.00;;;6.61;100.00
74327;BME280;62745;51.060;13.786;2023-12-20T08:59:15;99776.91;;;6.46;100.00
74327;BME280;62745;51.060;13.786;2023-12-20T09:01:40;99773.34;;;6.31;100.00
74327;BME280;62745;51.060;13.786;2023-12-20T09:04:05;99770.78;;;6.23;100.00
74327;BME280;62745;51.060;13.786;2023-12-20T09:06:31;99769.44;;;6.19;100.00
74327;BME280;62745;51.060;13.786;2023-12-20T09:08:56;99760.63;;;6.26;100.00
74327;BME280;62745;51.060;13.786;2023-12-20T09:11:22;99761.88;;;6.39;100.00
74327;BME280;62745;51.060;13.786;2023-12-20T09:13:47;99761.97;;;6.45;100.00
74327;BME280;62745;51.060;13.786;2023-12-20T09:16:12;99765.22;;;6.55;100.00
74327;BME280;62745;51.060;13.786;2023-12-20T09:18:38;99774.94;;;6.63;100.00
74327;BME280;62745;51.060;13.786;2023-12-20T09:21:04;99771.78;;;6.82;100.00
74327;BME280;62745;51.060;13.786;2023-12-20T09:23:29;99761.81;;;6.84;100.00
74327;BME280;62745;51.060;13.786;2023-12-20T09:25:54;99759.16;;;6.84;100.00
74327;BME280;62745;51.060;13.786;2023-12-20T09:28:20;99772.88;;;6.88;100.00
74327;BME280;62745;51.060;13.786;2023-12-20T09:30:45;99769.34;;;6.96;100.00
74327;BME280;62745;51.060;13.786;2023-12-20T09:33:11;99766.16;;;7.00;100.00
74327;BME280;62745;51.060;13.786;2023-12-20T09:35:37;99748.66;;;6.91;100.00
74327;BME280;62745;51.060;13.786;2023-12-20T09:38:02;99752.41;;;6.97;100.00
74327;BME280;62745;51.060;13.786;2023-12-20T09:40:28;99749.38;;;7.00;100.00
74327;BME280;62745;51.060;13.786;2023-12-20T09:43:00;99763.50;;;7.00;100.00
74327;BME280;62745;51.060;13.786;2023-12-20T09:45:30;99751.69;;;7.03;100.00
74327;BME280;62745;51.060;13.786;2023-12-20T09:47:57;99749.84;;;7.03;100.00
74327;BME280;62745;51.060;13.786;2023-12-20T09:50:23;99761.13;;;7.35;100.00
74327;BME280;62745;51.060;13.786;2023-12-20T09:52:52;99746.31;;;7.40;100.00
74327;BME280;62745;51.060;13.786;2023-12-20T09:55:18;99747.66;;;7.51;100.00
74327;BME280;62745;51.060;13.786;2023-12-20T09:57:45;99755.97;;;7.77;100.00
74327;BME280;62745;51.060;13.786;2023-12-20T10:00:11;99748.03;;;7.63;100.00
74327;BME280;62745;51.060;13.786;2023-12-20T10:02:38;99735.63;;;7.55;100.00
74327;BME280;62745;51.060;13.786;2023-12-20T10:05:08;99725.59;;;7.87;100.00
74327;BME280;62745;51.060;13.786;2023-12-20T10:07:34;99724.66;;;7.73;100.00
74327;BME280;62745;51.060;13.786;2023-12-20T10:10:01;99732.63;;;7.58;100.00
74327;BME280;62745;51.060;13.786;2023-12-20T10:12:27;99729.06;;;7.36;100.00
74327;BME280;62745;51.060;13.786;2023-12-20T10:14:52;99741.16;;;7.39;100.00
74327;BME280;62745;51.060;13.786;2023-12-20T10:17:17;99733.38;;;7.37;100.00
74327;BME280;62745;51.060;13.786;2023-12-20T10:19:43;99730.06;;;7.20;100.00
74327;BME280;62745;51.060;13.786;2023-12-20T10:22:10;99723.66;;;7.44;100.00
74327;BME280;62745;51.060;13.786;2023-12-20T10:24:35;99732.47;;;7.45;100.00
74327;BME280;62745;51.060;13.786;2023-12-20T10:27:04;99704.97;;;7.38;100.00
74327;BME280;62745;51.060;13.786;2023-12-20T10:29:36;99700.84;;;7.35;100.00
74327;BME280;62745;51.060;13.786;2023-12-20T10:34:47;99704.31;;;7.36;100.00
74327;BME280;62745;51.060;13.786;2023-12-20T10:37:12;99698.56;;;7.47;100.00
74327;BME280;62745;51.060;13.786;2023-12-20T10:39:38;99693.59;;;7.59;100.00
74327;BME280;62745;51.060;13.786;2023-12-20T10:42:04;99694.59;;;7.58;100.00
74327;BME280;62745;51.060;13.786;2023-12-20T10:44:30;99699.72;;;7.59;100.00
74327;BME280;62745;51.060;13.786;2023-12-20T10:46:55;99717.78;;;7.34;100.00
74327;BME280;62745;51.060;13.786;2023-12-20T10:49:24;99685.09;;;7.19;100.00
74327;BME280;62745;51.060;13.786;2023-12-20T10:51:53;99681.44;;;7.20;100.00
74327;BME280;62745;51.060;13.786;2023-12-20T10:54:19;99663.94;;;7.40;100.00
74327;BME280;62745;51.060;13.786;2023-12-20T10:56:44;99681.56;;;7.63;100.00
74327;BME280;62745;51.060;13.786;2023-12-20T10:59:11;99669.13;;;7.48;100.00
74327;BME280;62745;51.060;13.786;2023-12-20T11:01:38;99667.13;;;7.36;100.00
74327;BME280;62745;51.060;13.786;2023-12-20T11:04:06;99672.31;;;7.59;100.00
74327;BME280;62745;51.060;13.786;2023-12-20T11:06:48;99688.94;;;7.82;97.38
74327;BME280;62745;51.060;13.786;2023-12-20T11:09:22;99684.03;;;7.64;94.99
74327;BME280;62745;51.060;13.786;2023-12-20T11:12:07;99676.31;;;7.69;96.79
74327;BME280;62745;51.060;13.786;2023-12-20T11:14:43;99663.38;;;8.02;95.70
74327;BME280;62745;51.060;13.786;2023-12-20T11:17:11;99670.38;;;7.89;93.72
74327;BME280;62745;51.060;13.786;2023-12-20T11:22:26;99658.94;;;7.52;95.29
74327;BME280;62745;51.060;13.786;2023-12-20T11:24:52;99667.00;;;7.59;97.27
74327;BME280;62745;51.060;13.786;2023-12-20T11:27:19;99659.03;;;7.59;99.20
74327;BME280;62745;51.060;13.786;2023-12-20T11:29:51;99665.59;;;7.41;96.89
74327;BME280;62745;51.060;13.786;2023-12-20T11:34:50;99669.47;;;7.24;98.22
74327;BME280;62745;51.060;13.786;2023-12-20T11:37:15;99649.13;;;7.02;97.96
74327;BME280;62745;51.060;13.786;2023-12-20T11:39:42;99662.84;;;7.05;98.32
74327;BME280;62745;51.060;13.786;2023-12-20T11:42:10;99666.25;;;7.14;100.00
74327;BME280;62745;51.060;13.786;2023-12-20T11:44:36;99646.56;;;7.08;100.00
74327;BME280;62745;51.060;13.786;2023-12-20T11:47:02;99679.78;;;7.04;98.31
74327;BME280;62745;51.060;13.786;2023-12-20T11:49:27;99653.16;;;7.12;98.95
74327;BME280;62745;51.060;13.786;2023-12-20T11:51:56;99645.94;;;7.06;99.45
74327;BME280;62745;51.060;13.786;2023-12-20T11:54:21;99647.09;;;7.04;99.73
74327;BME280;62745;51.060;13.786;2023-12-20T11:56:47;99638.03;;;7.28;98.06
74327;BME280;62745;51.060;13.786;2023-12-20T11:59:13;99618.50;;;7.20;95.93
74327;BME280;62745;51.060;13.786;2023-12-20T12:01:38;99624.81;;;7.34;94.46
74327;BME280;62745;51.060;13.786;2023-12-20T12:04:04;99624.25;;;7.39;95.24
74327;BME280;62745;51.060;13.786;2023-12-20T12:06:30;99635.47;;;7.55;92.79
74327;BME280;62745;51.060;13.786;2023-12-20T12:08:55;99598.72;;;7.80;92.19
74327;BME280;62745;51.060;13.786;2023-12-20T12:11:21;99609.81;;;7.84;92.34
74327;BME280;62745;51.060;13.786;2023-12-20T12:13:46;99627.69;;;8.18;88.37
74327;BME280;62745;51.060;13.786;2023-12-20T12:16:12;99610.16;;;8.02;87.49
74327;BME280;62745;51.060;13.786;2023-12-20T12:18:37;99603.88;;;8.31;88.73
74327;BME280;62745;51.060;13.786;2023-12-20T12:21:02;99596.16;;;8.36;86.62
74327;BME280;62745;51.060;13.786;2023-12-20T12:23:28;99575.75;;;8.22;86.33
74327;BME280;62745;51.060;13.786;2023-12-20T12:25:54;99602.19;;;8.24;86.15
74327;BME280;62745;51.060;13.786;2023-12-20T12:28:20;99581.00;;;8.37;85.61
74327;BME280;62745;51.060;13.786;2023-12-20T12:30:58;99578.22;;;8.86;85.32
74327;BME280;62745;51.060;13.786;2023-12-20T12:33:27;99584.16;;;8.88;81.91
74327;BME280;62745;51.060;13.786;2023-12-20T12:35:52;99568.31;;;9.08;81.42
74327;BME280;62745;51.060;13.786;2023-12-20T12:38:21;99561.75;;;8.69;81.86
74327;BME280;62745;51.060;13.786;2023-12-20T12:40:47;99553.75;;;8.63;81.93
74327;BME280;62745;51.060;13.786;2023-12-20T12:43:12;99575.69;;;8.71;83.08
74327;BME280;62745;51.060;13.786;2023-12-20T12:45:38;99565.78;;;8.31;84.46
74327;BME280;62745;51.060;13.786;2023-12-20T12:48:03;99561.16;;;8.11;85.88
74327;BME280;62745;51.060;13.786;2023-12-20T12:50:30;99562.41;;;8.15;86.53